Wetterdaten: aktuell Freitag, 29.05.2020 15:18
Datum Zeit Temp. A. Feuchte A. Luftdruck Regen Wind Richtung Richtung Taupunkt Windchill Windben
29.05.2020 15:18 15,1 C 64 % 1025,4 hPa 0,0 l/m 4,8 km/h (1 Bft) NO 45 8,3 C 15,1 C 8,0 km/h (2 Bft)
29.05.2020 14:18 15,7 C 61 % 1026,1 hPa 0,0 l/m 11,3 km/h (2 Bft) O-SO 112 8,2 C 13,3 C 14,5 km/h (3 Bft)
29.05.2020 13:18 14,7 C 66 % 1026,9 hPa 0,0 l/m 4,8 km/h (1 Bft) O 90 8,4 C 14,7 C 6,4 km/h (2 Bft)
29.05.2020 12:18 14,1 C 65 % 1027,5 hPa 0,0 l/m 4,8 km/h (1 Bft) O-NO 67 7,6 C 14,1 C 9,7 km/h (2 Bft)
29.05.2020 11:18 13,1 C 66 % 1027,9 hPa 0,0 l/m 3,2 km/h (1 Bft) O-NO 67 6,9 C 13,1 C 4,8 km/h (1 Bft)
29.05.2020 10:18 12,1 C 70 % 1028,2 hPa 0,0 l/m 1,6 km/h (1 Bft) NO 45 6,8 C 12,1 C 4,8 km/h (1 Bft)
29.05.2020 09:18 10,9 C 79 % 1028,2 hPa 0,0 l/m 3,2 km/h (1 Bft) N 360 7,4 C 10,9 C 4,8 km/h (1 Bft)
29.05.2020 08:18 8,9 C 88 % 1028,3 hPa 0,0 l/m 0,0 km/h (0 Bft) N 0 7,0 C 8,9 C 0,0 km/h (0 Bft)
29.05.2020 07:18 7,8 C 92 % 1028,4 hPa 0,0 l/m 1,6 km/h (1 Bft) NO 45 6,6 C 7,8 C 3,2 km/h (1 Bft)
29.05.2020 06:18 5,6 C 92 % 1028,3 hPa 0,0 l/m 0,0 km/h (0 Bft) N 0 4,4 C 5,6 C 0,0 km/h (0 Bft)
29.05.2020 05:18 4,5 C 91 % 1028,3 hPa 0,0 l/m 0,0 km/h (0 Bft) N 0 3,2 C 4,5 C 0,0 km/h (0 Bft)
29.05.2020 04:18 5,6 C 91 % 1028,1 hPa 0,0 l/m 0,0 km/h (0 Bft) N 0 4,2 C 5,6 C 0,0 km/h (0 Bft)
29.05.2020 03:18 6,3 C 91 % 1028,2 hPa 0,0 l/m 0,0 km/h (0 Bft) N 0 4,9 C 6,3 C 0,0 km/h (0 Bft)
29.05.2020 02:18 6,3 C 90 % 1028,7 hPa 0,0 l/m 0,0 km/h (0 Bft) N 0 4,8 C 6,3 C 0,0 km/h (0 Bft)
29.05.2020 01:18 5,6 C 89 % 1028,7 hPa 0,0 l/m 0,0 km/h (0 Bft) N 0 3,9 C 5,6 C 0,0 km/h (0 Bft)
29.05.2020 00:18 5,9 C 87 % 1029,0 hPa 0,0 l/m 0,0 km/h (0 Bft) S-SW 202 3,9 C 5,9 C 1,6 km/h (1 Bft)
28.05.2020 23:18 7,8 C 85 % 1029,3 hPa 0,0 l/m 0,0 km/h (0 Bft) N 0 5,4 C 7,8 C 0,0 km/h (0 Bft)
28.05.2020 22:18 9,1 C 83 % 1029,6 hPa 0,0 l/m 0,0 km/h (0 Bft) N 0 6,4 C 9,1 C 0,0 km/h (0 Bft)
28.05.2020 21:18 9,9 C 83 % 1029,4 hPa 0,0 l/m 3,2 km/h (1 Bft) N-NO 22 7,2 C 9,9 C 6,4 km/h (2 Bft)
28.05.2020 20:18 11,1 C 82 % 1028,2 hPa 0,4 l/m 0,0 km/h (0 Bft) N 0 8,1 C 11,1 C 0,0 km/h (0 Bft)
28.05.2020 19:18 12,9 C 77 % 1027,9 hPa 0,0 l/m 1,6 km/h (1 Bft) SO 135 9,0 C 12,9 C 6,4 km/h (2 Bft)
28.05.2020 18:18 14,3 C 76 % 1027,6 hPa 0,0 l/m 6,4 km/h (2 Bft) S-SO 157 10,1 C 14,3 C 9,7 km/h (2 Bft)
28.05.2020 17:18 14,4 C 71 % 1027,6 hPa 0,0 l/m 4,8 km/h (1 Bft) NO 45 9,2 C 14,4 C 8,0 km/h (2 Bft)
28.05.2020 16:18 16,3 C 57 % 1027,0 hPa 0,0 l/m 9,7 km/h (2 Bft) NO 45 7,8 C 14,7 C 16,1 km/h (3 Bft)
28.05.2020 16:00 15,1 C 66 % 1027,0 hPa 0,0 l/m 3,2 km/h (1 Bft) N-NW 337 8,8 C 15,1 C 4,8 km/h (1 Bft)
_ Min-Zeit 05:19 16:17 15:12 - 17:07 - - 05:19 05:19 18:54
Minimum _ 4,4 C 56 % 1025,4 hPa - 0,0 km/h (0 Bft) - - 3,1 C 4,4 C 0,0 km/h (0 Bft)
_ Max-Zeit 16:13 06:59 22:29 19:31 16:20 - - 17:47 16:16 16:25
Maximum _ 16,4 C 93 % 1029,7 hPa 0,2 l/m 16,1 km/h
N-NO (3 Bft)
- - 10,2 C 16,4 C 24,1 km/h
O-NO (4 Bft)
Durchschnitt _ 10,5 C 79 % 1028,0 hPa #0,4 l/m 3,1 km/h (1 Bft) NO - 6,8 C 10,3 C 5,2 km/h (1 Bft)